Time;durP1;ratioP1;P1;durP2;ratioP2;P2;SDS_P1;SDS_P2;PMS_P1;PMS_P2;Temp;Humidity;BMP_temperature;BMP_pressure;BME280_temperature;BME280_humidity;BME280_pressure;Samples;Min_cycle;Max_cycle;Signal;HPM_P1;HPM_P2
2021/01/29 00:00:58;;;;;;;2.75;2.40;;;5.20;84.70;;;4.28;69.96;93432.41;5035308;28;20667;-80
2021/01/29 00:03:28;;;;;;;3.67;2.47;;;5.20;84.70;;;4.33;69.76;93429.25;5034014;28;20214;-79
2021/01/29 00:05:58;;;;;;;3.35;2.40;;;5.20;84.60;;;4.32;70.07;93428.47;5034329;28;20281;-79
2021/01/29 00:08:26;;;;;;;2.70;2.47;;;5.30;84.70;;;4.30;70.09;93421.88;5034533;28;20199;-80
2021/01/29 00:10:54;;;;;;;2.55;2.13;;;5.30;85.30;;;4.34;69.81;93433.47;5051359;28;20216;-79
2021/01/29 00:13:23;;;;;;;3.13;2.50;;;5.30;84.50;;;4.36;69.86;93436.69;5051499;28;20279;-81
2021/01/29 00:15:51;;;;;;;3.00;2.30;;;5.30;84.50;;;4.37;70.00;93445.25;5067538;28;20597;-79
2021/01/29 00:18:19;;;;;;;3.00;2.47;;;5.40;84.60;;;4.36;69.64;93449.66;5034343;28;20200;-80
2021/01/29 00:20:47;;;;;;;2.95;2.58;;;5.30;84.50;;;4.36;69.75;93436.69;5034308;28;20220;-80
2021/01/29 00:23:16;;;;;;;3.20;2.50;;;5.30;84.50;;;4.37;69.74;93435.69;5051151;28;20558;-80
2021/01/29 00:25:48;;;;;;;2.50;2.30;;;5.30;84.40;;;4.39;69.92;93451.06;5050860;28;20216;-80
2021/01/29 00:28:17;;;;;;;3.13;2.50;;;5.30;84.40;;;4.37;69.81;93450.44;5050684;28;20180;-79
2021/01/29 00:30:45;;;;;;;3.20;2.22;;;5.30;84.50;;;4.37;69.78;93455.63;5034907;28;20200;-79
2021/01/29 00:33:14;;;;;;;2.78;2.30;;;5.30;84.50;;;4.35;70.18;93448.06;5050686;28;20200;-80
2021/01/29 00:35:42;;;;;;;2.53;2.10;;;5.30;84.90;;;4.32;69.79;93448.41;5033900;28;20604;-80
2021/01/29 00:38:10;;;;;;;2.60;2.40;;;5.30;84.40;;;4.35;70.00;93450.66;5034296;28;20208;-80
2021/01/29 00:40:37;;;;;;;3.17;2.50;;;5.30;85.20;;;4.33;69.48;93461.22;5050764;28;20306;-80
2021/01/29 00:43:06;;;;;;;2.85;2.53;;;5.30;84.50;;;4.31;70.28;93459.81;5051179;28;20618;-80
2021/01/29 00:45:37;;;;;;;2.25;2.03;;;5.30;84.50;;;4.32;69.66;93462.22;5033168;28;20224;-80
2021/01/29 00:48:06;;;;;;;3.25;2.63;;;5.30;84.40;;;4.29;70.04;93465.16;5034649;28;20180;-80
2021/01/29 00:50:36;;;;;;;3.33;2.53;;;5.30;84.60;;;4.25;69.74;93458.75;5034095;28;20313;-79
2021/01/29 00:53:05;;;;;;;2.92;2.42;;;5.30;84.40;;;4.33;70.03;93479.41;5050516;28;20200;-80
2021/01/29 00:55:32;;;;;;;3.85;3.03;;;5.30;84.50;;;4.32;70.19;93482.97;5034066;28;20235;-80
2021/01/29 00:58:03;;;;;;;2.72;2.53;;;5.30;84.50;;;4.32;69.42;93480.38;5051866;28;20208;-80
2021/01/29 01:01:06;;;;;;;3.00;2.70;;;5.30;84.50;;;4.30;70.09;93482.34;4990160;28;20688;-80
2021/01/29 01:03:39;;;;;;;3.00;2.63;;;5.30;84.50;;;4.26;69.43;93478.53;5053855;28;20270;-80
2021/01/29 01:06:06;;;;;;;3.35;2.95;;;5.30;84.40;;;4.30;69.72;93491.94;5066767;28;20234;-80
2021/01/29 01:08:56;;;;;;;3.20;2.80;;;5.30;84.50;;;4.28;70.00;93480.94;5012566;28;20240;-80
2021/01/29 01:11:40;;;;;;;3.00;2.75;;;5.30;84.50;;;4.27;70.08;93481.94;5051677;28;20247;-81
2021/01/29 01:14:29;;;;;;;2.97;2.55;;;5.30;84.40;;;4.24;70.09;93480.50;5050509;28;20199;-80
2021/01/29 01:17:31;;;;;;;2.92;2.30;;;5.30;84.40;;;4.24;69.95;93464.16;4971052;28;20661;-81
2021/01/29 01:20:14;;;;;;;3.03;2.55;;;5.30;84.40;;;4.26;69.83;93473.34;5030754;28;20219;-79
2021/01/29 01:22:42;;;;;;;3.05;2.30;;;5.20;84.40;;;4.26;70.13;93481.13;5037684;28;20269;-79
2021/01/29 01:25:25;;;;;;;3.70;2.83;;;5.20;84.40;;;4.25;70.04;93487.31;5042452;28;20682;-79
2021/01/29 01:27:55;;;;;;;3.00;2.70;;;5.20;84.40;;;4.25;70.00;93483.94;5055230;28;20204;-80
2021/01/29 01:30:39;;;;;;;2.80;2.60;;;5.20;84.40;;;4.25;69.61;93494.31;5056132;28;20611;-80
2021/01/29 01:33:16;;;;;;;3.10;2.75;;;5.20;84.30;;;4.21;69.59;93465.34;5054153;28;20185;-80
2021/01/29 01:36:13;;;;;;;2.47;2.15;;;5.20;84.30;;;4.26;69.82;93483.72;5040959;28;20239;-80
2021/01/29 01:38:48;;;;;;;4.45;2.80;;;5.20;84.30;;;4.23;69.69;93489.28;5038861;28;20665;-79
2021/01/29 01:41:15;;;;;;;3.47;2.75;;;5.20;84.30;;;4.24;69.59;93485.69;5020276;28;20219;-80
2021/01/29 01:43:53;;;;;;;3.53;2.47;;;5.30;84.30;;;4.25;69.53;93484.72;5039233;28;20207;-80
2021/01/29 01:46:23;;;;;;;4.70;2.83;;;5.20;84.30;;;4.23;69.75;93484.09;5054396;28;20631;-80
2021/01/29 01:49:14;;;;;;;3.58;2.90;;;5.20;84.30;;;4.24;69.50;93490.91;5053947;28;20291;-80
2021/01/29 01:52:04;;;;;;;3.20;2.67;;;5.20;84.30;;;4.24;69.65;93490.09;5067772;28;20199;-79
2021/01/29 01:55:13;;;;;;;2.72;2.50;;;5.20;84.30;;;4.23;69.51;93494.47;5036830;28;20685;-80
2021/01/29 01:57:49;;;;;;;3.47;3.08;;;5.20;84.30;;;4.22;69.81;93498.06;5038938;28;20283;-80
2021/01/29 02:00:24;;;;;;;3.78;3.20;;;5.20;84.30;;;4.22;69.72;93484.28;5053646;28;20586;-80
2021/01/29 02:03:29;;;;;;;3.65;3.13;;;5.20;84.30;;;4.20;69.47;93481.88;5053859;28;20196;-80
2021/01/29 02:06:20;;;;;;;3.42;2.95;;;5.20;84.30;;;4.14;69.50;93467.88;5038619;28;20594;-80
2021/01/29 02:09:05;;;;;;;3.60;3.15;;;5.20;84.30;;;4.17;69.32;93474.47;5054891;28;20203;-79
2021/01/29 02:12:05;;;;;;;3.10;2.60;;;5.20;84.30;;;4.14;69.54;93488.63;5057262;28;20286;-80
2021/01/29 02:14:50;;;;;;;4.00;3.60;;;5.20;84.20;;;4.14;69.59;93488.63;5052456;28;20697;-80
2021/01/29 02:18:08;;;;;;;4.30;3.63;;;5.20;84.30;;;4.13;69.67;93492.19;5039521;28;20777;-80
2021/01/29 02:21:40;;;;;;;3.92;3.30;;;5.20;84.30;;;4.10;69.76;93489.19;5066523;28;20243;-80
2021/01/29 02:25:00;;;;;;;3.45;3.15;;;5.20;84.30;;;4.12;69.72;93479.41;5051638;28;20200;-79
2021/01/29 02:27:51;;;;;;;4.40;3.65;;;5.10;84.20;;;4.06;69.64;93473.19;5041516;28;20217;-80
2021/01/29 02:31:40;;;;;;;4.13;3.35;;;5.20;84.20;;;4.10;69.21;93492.59;5049955;28;20254;-80
2021/01/29 02:34:47;;;;;;;4.22;3.75;;;5.10;84.20;;;4.07;69.26;93492.94;5054935;28;20208;-79
2021/01/29 02:38:09;;;;;;;3.50;3.20;;;5.10;84.20;;;4.01;69.12;93478.94;5073223;28;20250;-79
2021/01/29 02:41:29;;;;;;;4.63;3.60;;;5.10;84.10;;;3.98;69.45;93471.53;5078673;28;20242;-79
2021/01/29 02:44:41;;;;;;;3.47;3.05;;;5.10;84.00;;;3.91;69.67;93468.06;5062115;28;20303;-78
2021/01/29 02:47:38;;;;;;;3.20;2.90;;;5.00;83.90;;;3.90;69.41;93460.50;5067571;28;20211;-79
2021/01/29 02:50:20;;;;;;;2.95;2.65;;;5.10;84.00;;;3.91;69.75;93456.91;5079874;28;20219;-79
2021/01/29 02:53:31;;;;;;;3.53;3.00;;;5.00;84.10;;;3.89;69.54;93459.66;5060742;28;20207;-80
2021/01/29 02:56:19;;;;;;;3.00;2.70;;;4.90;84.00;;;3.89;69.66;93454.47;5076327;28;20227;-80
2021/01/29 02:59:33;;;;;;;4.13;3.03;;;4.90;84.10;;;3.88;69.63;93444.31;5054514;28;20291;-78
2021/01/29 03:02:32;;;;;;;3.45;2.90;;;4.90;84.10;;;3.86;69.60;93439.31;5052724;28;20211;-79
2021/01/29 03:06:05;;;;;;;2.83;2.53;;;4.90;84.10;;;3.88;69.54;93439.13;5034347;28;20235;-79
2021/01/29 03:08:46;;;;;;;3.00;2.67;;;4.90;84.10;;;3.89;69.34;93438.91;5037390;28;20206;-79
2021/01/29 03:11:46;;;;;;;3.58;3.28;;;4.90;84.20;;;3.87;69.49;93435.72;5029496;28;20392;-80
2021/01/29 03:14:44;;;;;;;3.00;2.70;;;4.90;84.20;;;3.83;69.77;93424.09;5033983;28;20215;-80
2021/01/29 03:17:46;;;;;;;2.80;2.58;;;4.90;84.30;;;3.87;69.81;93429.72;5043030;28;20297;-79
2021/01/29 03:20:59;;;;;;;3.15;2.90;;;4.90;84.30;;;3.85;69.57;93430.72;5037733;28;20239;-79
2021/01/29 03:24:25;;;;;;;2.97;2.40;;;4.90;84.30;;;3.84;69.70;93417.94;5055621;28;20231;-79
2021/01/29 03:27:42;;;;;;;5.03;2.90;;;4.90;84.20;;;3.84;69.34;93420.53;5044751;28;20208;-79
2021/01/29 03:30:50;;;;;;;2.50;2.30;;;4.90;84.30;;;3.85;69.82;93415.16;5054517;28;20254;-80
2021/01/29 03:33:39;;;;;;;3.85;2.75;;;4.90;84.30;;;3.83;69.51;93404.19;5044721;28;20500;-80
2021/01/29 03:36:34;;;;;;;3.38;2.80;;;4.80;84.20;;;3.88;69.49;93392.44;5029955;28;20246;-80
2021/01/29 03:39:27;;;;;;;3.03;2.72;;;4.80;84.20;;;3.87;69.75;93388.22;5062902;28;20225;-79
2021/01/29 03:42:47;;;;;;;3.20;2.80;;;4.90;84.30;;;3.85;69.75;93391.00;5050092;28;20258;-79
2021/01/29 03:45:48;;;;;;;3.13;2.83;;;4.80;84.30;;;3.84;69.65;93392.81;5042711;28;20234;-80
2021/01/29 03:48:52;;;;;;;3.38;3.00;;;4.90;84.40;;;3.84;69.68;93385.03;5047077;28;20199;-79
2021/01/29 03:51:56;;;;;;;3.88;2.90;;;4.90;84.30;;;3.88;69.55;93382.84;5051060;28;20254;-79
2021/01/29 03:55:19;;;;;;;3.72;3.10;;;4.80;84.30;;;3.87;69.31;93373.47;5005409;28;20241;-80
2021/01/29 03:58:12;;;;;;;3.28;2.85;;;4.90;84.40;;;3.86;69.35;93371.88;5064373;28;20577;-80
2021/01/29 04:01:43;;;;;;;3.17;2.75;;;4.90;84.30;;;3.93;69.72;93379.69;5055147;28;20220;-80
2021/01/29 04:04:58;;;;;;;7.05;3.33;;;4.90;84.30;;;3.92;69.78;93391.88;5034943;28;20676;-79
2021/01/29 04:08:03;;;;;;;3.55;3.10;;;4.90;85.10;;;3.89;69.17;93384.44;5062344;28;20654;-79
2021/01/29 04:10:55;;;;;;;4.43;3.13;;;4.80;84.20;;;3.93;69.58;93400.44;5035591;28;20333;-80
2021/01/29 04:13:44;;;;;;;6.57;3.17;;;4.90;84.30;;;3.98;69.34;93400.69;5035346;28;20204;-80
2021/01/29 04:16:23;;;;;;;4.72;4.18;;;4.90;84.30;;;3.95;69.34;93409.63;5033845;28;20324;-80
2021/01/29 04:18:53;;;;;;;3.78;3.30;;;4.90;84.40;;;3.99;68.98;93413.47;5050074;28;20603;-81
2021/01/29 04:21:27;;;;;;;5.45;3.80;;;4.90;84.30;;;3.91;69.10;93398.03;5056621;28;20583;-80
2021/01/29 04:24:12;;;;;;;8.48;3.47;;;4.90;84.30;;;3.92;68.74;93389.28;5023443;28;20670;-80
2021/01/29 04:26:58;;;;;;;4.28;3.88;;;4.90;84.30;;;4.00;69.01;93385.72;5051454;28;20218;-80
2021/01/29 04:29:56;;;;;;;3.92;3.50;;;4.90;84.30;;;4.04;69.39;93389.56;5030669;28;20693;-80
2021/01/29 04:32:29;;;;;;;4.05;3.40;;;4.90;84.20;;;4.06;69.32;93382.38;5030355;28;20224;-81
2021/01/29 04:34:59;;;;;;;4.00;3.60;;;4.90;84.20;;;4.08;69.24;93379.63;5062992;28;20222;-79
2021/01/29 04:37:32;;;;;;;4.93;3.50;;;4.90;84.20;;;4.05;68.97;93361.81;5047766;28;20279;-80
2021/01/29 04:40:07;;;;;;;4.05;3.40;;;5.00;84.30;;;4.09;69.13;93370.81;5031273;28;20212;-80
2021/01/29 04:43:26;;;;;;;4.35;3.60;;;5.00;84.30;;;4.06;69.02;93366.81;5014782;28;20654;-81
2021/01/29 04:46:02;;;;;;;3.40;3.10;;;5.00;84.30;;;4.10;68.83;93375.00;4990754;28;20248;-81
2021/01/29 04:48:45;;;;;;;3.90;3.50;;;5.00;84.30;;;4.12;68.85;93378.22;5048137;28;20193;-80
2021/01/29 04:51:27;;;;;;;4.82;4.30;;;5.10;84.30;;;4.13;68.75;93379.84;5043222;28;20242;-80
2021/01/29 04:54:38;;;;;;;6.53;4.63;;;5.00;84.20;;;4.07;68.81;93371.00;5069495;28;20200;-81
2021/01/29 04:57:36;;;;;;;5.28;4.30;;;5.00;84.20;;;4.04;69.24;93366.22;5038503;28;20219;-80
2021/01/29 05:00:47;;;;;;;4.63;4.10;;;5.00;84.70;;;4.08;69.00;93366.63;5067570;28;20250;-81
2021/01/29 05:04:03;;;;;;;3.90;3.50;;;5.00;84.20;;;4.09;68.91;93363.03;5046172;28;20180;-81
2021/01/29 05:07:21;;;;;;;4.35;3.95;;;5.00;84.10;;;4.10;69.18;93352.47;5054999;28;20302;-81
2021/01/29 05:10:35;;;;;;;9.45;6.57;;;5.00;84.20;;;4.08;69.04;93351.88;5066426;28;20298;-81
2021/01/29 05:13:39;;;;;;;6.35;4.57;;;5.00;84.20;;;4.09;68.90;93339.69;5069758;28;20265;-81
2021/01/29 05:16:09;;;;;;;6.88;4.95;;;5.00;84.20;;;4.16;69.01;93343.94;5063984;28;20233;-80
2021/01/29 05:19:04;;;;;;;6.45;5.28;;;5.00;84.10;;;4.18;69.01;93335.16;5051596;28;20208;-80
2021/01/29 05:21:56;;;;;;;7.68;5.38;;;5.00;84.20;;;4.19;68.57;93324.59;5063272;28;20220;-80
2021/01/29 05:24:56;;;;;;;7.63;5.85;;;5.00;84.20;;;4.20;68.70;93326.19;5069858;28;20227;-81
2021/01/29 05:28:02;;;;;;;6.43;5.20;;;5.10;84.20;;;4.19;68.37;93321.16;5050601;28;20204;-81
2021/01/29 05:31:04;;;;;;;5.80;5.00;;;5.10;84.10;;;4.19;68.56;93310.78;5044896;28;20584;-81
2021/01/29 05:33:58;;;;;;;6.38;5.30;;;5.10;84.10;;;4.18;68.59;93312.59;5048027;28;20223;-81
2021/01/29 05:37:21;;;;;;;6.95;5.63;;;5.10;84.10;;;4.18;68.40;93309.22;5042960;28;20305;-80
2021/01/29 05:40:15;;;;;;;5.88;5.25;;;5.10;84.10;;;4.18;68.46;93298.84;5036857;28;20277;-81
2021/01/29 05:43:18;;;;;;;6.43;5.32;;;5.00;84.00;;;4.14;68.55;93288.03;5050721;28;20200;-81
2021/01/29 05:45:58;;;;;;;7.53;5.63;;;5.10;84.20;;;4.20;68.62;93300.25;5050603;28;20342;-82
2021/01/29 05:48:55;;;;;;;9.05;6.88;;;5.10;84.10;;;4.21;68.61;93304.44;5036498;28;20207;-81
2021/01/29 05:51:22;;;;;;;8.55;6.47;;;5.10;84.10;;;4.21;68.64;93294.06;5049694;28;20743;-82
2021/01/29 05:54:15;;;;;;;8.32;6.15;;;5.10;84.10;;;4.24;68.43;93292.88;5053439;28;20230;-82
2021/01/29 05:57:31;;;;;;;8.70;6.25;;;5.20;84.20;;;4.24;68.37;93280.69;5068683;28;20258;-83
2021/01/29 06:00:42;;;;;;;8.25;6.70;;;5.10;84.10;;;4.23;68.50;93279.06;5036408;28;20247;-82
2021/01/29 06:03:27;;;;;;;8.02;6.70;;;5.10;84.10;;;4.24;68.46;93272.09;5029001;28;20188;-80
2021/01/29 06:06:24;;;;;;;7.40;6.32;;;5.10;84.00;;;4.24;68.38;93264.31;5047586;28;20228;-81
2021/01/29 06:09:32;;;;;;;10.63;8.52;;;5.10;84.00;;;4.21;68.10;93249.13;5048828;28;20199;-81
2021/01/29 06:12:37;;;;;;;8.60;7.70;;;5.10;83.90;;;4.21;68.25;93244.75;5035222;28;20597;-81
2021/01/29 06:15:41;;;;;;;5.50;4.88;;;5.10;83.90;;;4.19;68.32;93228.56;5068515;28;20748;-81
2021/01/29 06:18:31;;;;;;;6.28;4.68;;;5.10;83.90;;;4.19;68.19;93227.75;5053208;28;20196;-81
2021/01/29 06:21:49;;;;;;;6.20;4.85;;;5.10;84.00;;;4.19;68.22;93230.34;5040158;28;20632;-81
2021/01/29 06:24:51;;;;;;;7.18;5.05;;;5.10;83.90;;;4.09;68.23;93205.59;5070224;28;20200;-84
2021/01/29 06:27:21;;;;;;;6.88;4.60;;;5.10;83.80;;;4.16;68.22;93219.38;5048419;28;20192;-82
2021/01/29 06:29:57;;;;;;;6.18;4.65;;;5.10;83.70;;;4.14;68.13;93216.16;5070459;28;20226;-84
2021/01/29 06:32:58;;;;;;;8.25;4.97;;;5.10;83.70;;;4.10;67.83;93216.75;5070587;28;20192;-84
2021/01/29 06:36:06;;;;;;;6.70;4.90;;;5.00;83.70;;;4.04;67.79;93217.53;5052468;28;20306;-84
2021/01/29 06:38:55;;;;;;;7.10;5.00;;;5.00;83.50;;;3.98;68.02;93209.53;5071095;28;20180;-84
2021/01/29 06:41:49;;;;;;;19.35;6.63;;;5.00;83.40;;;3.95;68.19;93220.28;5034622;28;20267;-83
2021/01/29 06:44:40;;;;;;;18.45;6.25;;;4.90;83.50;;;3.95;67.93;93216.91;5050459;28;20223;-82
2021/01/29 06:47:31;;;;;;;18.13;6.32;;;4.90;83.60;;;3.91;68.27;93205.31;5053045;28;20303;-81
2021/01/29 06:50:39;;;;;;;41.30;7.50;;;4.90;83.80;;;3.96;68.17;93203.72;5069883;28;20220;-83
2021/01/29 06:53:36;;;;;;;24.35;6.88;;;4.90;83.80;;;3.95;68.11;93209.91;5070105;28;20595;-83
2021/01/29 06:56:13;;;;;;;13.30;6.20;;;4.90;83.90;;;3.97;68.13;93205.34;5090235;28;20327;-83
2021/01/29 06:58:55;;;;;;;42.42;7.13;;;4.90;83.80;;;3.97;68.25;93200.13;5071496;28;20237;-83
2021/01/29 07:01:42;;;;;;;43.63;7.45;;;4.90;83.90;;;3.97;68.24;93199.34;5069917;28;20204;-83
2021/01/29 07:04:50;;;;;;;43.78;6.78;;;4.90;83.90;;;3.97;68.43;93194.94;5036744;28;20218;-83
2021/01/29 07:08:13;;;;;;;24.63;6.15;;;4.90;83.90;;;3.96;68.65;93192.56;5081393;28;20208;-83
2021/01/29 07:11:22;;;;;;;20.88;5.43;;;4.90;83.90;;;3.94;68.36;93187.56;5049336;28;20303;-83
2021/01/29 07:14:28;;;;;;;26.40;5.90;;;4.90;83.90;;;4.01;68.54;93185.00;5046181;28;20180;-82
2021/01/29 07:17:27;;;;;;;25.05;5.55;;;4.90;84.00;;;4.00;68.71;93178.19;5034143;28;20231;-84
2021/01/29 07:20:25;;;;;;;14.35;5.78;;;4.90;84.10;;;4.08;68.35;93172.06;5045939;28;20211;-83
2021/01/29 07:23:31;;;;;;;10.75;5.60;;;5.00;84.20;;;4.13;68.35;93172.25;5065718;28;20228;-83
2021/01/29 07:26:29;;;;;;;7.78;5.85;;;5.00;84.20;;;4.13;68.73;93173.06;5064211;28;20216;-82
2021/01/29 07:29:14;;;;;;;8.00;5.63;;;5.00;84.00;;;4.19;68.62;93168.06;5049772;28;20715;-81
2021/01/29 07:31:53;;;;;;;6.75;5.30;;;5.00;84.10;;;4.23;68.46;93164.09;5046710;28;20237;-79
2021/01/29 07:34:42;;;;;;;6.70;4.75;;;5.00;84.10;;;4.19;68.76;93139.53;5055993;28;20196;-78
2021/01/29 07:37:33;;;;;;;6.97;5.10;;;5.10;84.30;;;4.38;68.56;93156.16;5050816;28;20234;-79
2021/01/29 07:40:56;;;;;;;6.60;4.82;;;5.10;84.50;;;4.46;68.39;93150.78;5047435;28;20231;-80
2021/01/29 07:43:59;;;;;;;6.50;4.90;;;5.20;84.60;;;4.54;68.50;93139.38;5051733;28;20552;-79
2021/01/29 07:46:46;;;;;;;6.53;4.82;;;5.20;84.60;;;4.59;68.48;93148.19;5049337;28;20223;-79
2021/01/29 07:49:45;;;;;;;6.93;5.30;;;5.30;84.60;;;4.63;68.51;93130.44;5035885;28;20197;-80
2021/01/29 07:52:44;;;;;;;6.07;4.85;;;5.40;84.60;;;4.70;68.34;93125.22;5065567;28;20196;-78
2021/01/29 07:55:24;;;;;;;7.30;5.28;;;5.40;85.30;;;4.73;68.21;93119.63;5048624;28;20220;-79
2021/01/29 07:58:16;;;;;;;7.43;6.13;;;5.40;84.40;;;4.76;68.28;93120.03;5028053;28;20196;-79
2021/01/29 08:01:23;;;;;;;7.93;6.20;;;5.50;84.40;;;4.78;68.34;93112.81;5067647;28;20220;-80
2021/01/29 08:04:12;;;;;;;7.05;5.45;;;5.50;84.40;;;4.85;68.13;93115.44;5020095;28;20287;-80
2021/01/29 08:06:43;;;;;;;6.85;5.28;;;5.60;84.50;;;4.89;68.52;93110.63;5047972;28;20251;-79
2021/01/29 08:09:28;;;;;;;6.47;5.55;;;5.60;84.40;;;4.94;68.31;93101.25;5066281;28;20287;-80
2021/01/29 08:12:00;;;;;;;7.00;5.75;;;5.60;84.50;;;5.00;68.45;93102.22;5043218;28;20200;-79
2021/01/29 08:14:58;;;;;;;8.25;6.28;;;5.70;84.50;;;5.01;68.49;93095.25;5043464;28;20556;-79
2021/01/29 08:17:58;;;;;;;8.10;6.15;;;5.70;84.60;;;5.08;68.36;93094.22;5065315;28;20315;-80
2021/01/29 08:20:42;;;;;;;6.78;5.78;;;5.80;84.60;;;5.16;68.30;93101.00;5044075;28;20224;-79
2021/01/29 08:23:31;;;;;;;8.23;6.50;;;5.80;84.70;;;5.22;68.41;93105.38;5050248;28;20242;-80
2021/01/29 08:26:29;;;;;;;5.90;5.05;;;5.90;84.80;;;5.36;68.63;93095.75;5043925;28;20220;-79
2021/01/29 08:29:09;;;;;;;5.50;4.82;;;5.90;85.00;;;5.51;68.57;93089.53;5051602;28;20204;-79
2021/01/29 08:32:23;;;;;;;6.60;4.88;;;6.00;85.20;;;5.61;68.66;93087.25;5056765;28;20406;-79
2021/01/29 08:35:43;;;;;;;5.32;4.43;;;6.10;85.30;;;5.79;68.42;93078.78;5085731;28;20594;-79
2021/01/29 08:38:38;;;;;;;5.47;4.80;;;6.20;85.40;;;5.91;68.30;93071.13;5079522;28;20203;-79
2021/01/29 08:41:15;;;;;;;4.43;3.95;;;6.30;85.40;;;6.03;68.80;93068.69;5031361;28;20754;-82
2021/01/29 08:44:43;;;;;;;5.80;4.75;;;6.40;85.50;;;6.14;68.11;93068.03;5051274;28;20187;-80
2021/01/29 08:47:54;;;;;;;5.20;3.95;;;6.50;85.40;;;6.20;67.93;93072.38;4971048;28;20287;-81
2021/01/29 08:50:50;;;;;;;3.97;3.33;;;6.70;85.20;;;6.25;68.22;93059.53;5033113;28;20219;-80
2021/01/29 08:54:03;;;;;;;5.30;4.30;;;6.70;85.00;;;6.29;67.95;93065.13;5062463;28;20214;-79
2021/01/29 08:56:39;;;;;;;6.15;5.25;;;6.80;84.80;;;6.32;67.98;93066.50;5056669;28;20236;-81
2021/01/29 08:59:17;;;;;;;6.97;5.22;;;6.90;85.50;;;6.30;67.91;93058.09;5067371;28;20200;-81
2021/01/29 09:02:18;;;;;;;6.55;5.25;;;6.90;84.70;;;6.28;67.78;93055.72;5051499;28;20196;-80
2021/01/29 09:04:48;;;;;;;8.85;6.88;;;6.90;84.50;;;6.30;67.42;93056.31;5011585;28;20315;-79
2021/01/29 09:07:29;;;;;;;9.05;6.97;;;7.00;84.30;;;6.28;67.70;93054.94;5050706;28;20551;-79
2021/01/29 09:10:12;;;;;;;14.57;8.30;;;7.00;84.10;;;6.26;67.57;93055.13;5050962;28;20211;-80
2021/01/29 09:12:41;;;;;;;15.98;9.73;;;7.00;84.00;;;6.25;67.54;93053.53;5052085;28;20242;-80
2021/01/29 09:16:07;;;;;;;16.92;10.52;;;7.00;84.00;;;6.18;67.41;93050.97;5028981;28;20227;-80
2021/01/29 09:19:08;;;;;;;14.63;10.43;;;6.90;83.80;;;6.17;67.30;93057.19;5034340;28;20291;-81
2021/01/29 09:22:19;;;;;;;16.20;10.32;;;6.90;83.90;;;6.13;67.52;93047.41;5033738;28;20735;-80
2021/01/29 09:25:18;;;;;;;13.77;9.25;;;6.90;83.70;;;6.07;67.43;93049.84;5030859;28;20278;-80
2021/01/29 09:28:28;;;;;;;14.65;7.03;;;6.90;83.70;;;6.04;67.37;93044.25;5047293;28;20736;-80
2021/01/29 09:31:22;;;;;;;24.70;6.97;;;6.80;83.50;;;5.95;67.42;93038.47;5033718;28;20212;-80
2021/01/29 09:34:10;;;;;;;31.40;8.15;;;6.80;83.50;;;5.94;67.58;93036.88;5032797;28;20188;-81
2021/01/29 09:36:48;;;;;;;24.10;8.68;;;6.80;83.40;;;5.88;67.34;93025.53;5049092;28;20247;-80
2021/01/29 09:39:58;;;;;;;16.60;8.68;;;6.80;83.50;;;5.86;67.56;93032.72;5049357;28;20192;-80
2021/01/29 09:42:46;;;;;;;24.38;7.95;;;6.70;83.50;;;5.86;67.78;93018.91;5054127;28;20207;-81
2021/01/29 09:45:25;;;;;;;16.65;7.03;;;6.70;83.50;;;5.90;67.53;93022.69;5070274;28;20261;-80
2021/01/29 09:48:00;;;;;;;14.00;6.60;;;6.70;83.50;;;5.88;67.71;93020.31;5037235;28;20199;-81
2021/01/29 09:50:30;;;;;;;12.60;6.40;;;6.60;83.50;;;5.89;67.66;93019.28;5037560;28;20538;-81
2021/01/29 09:53:23;;;;;;;14.98;5.60;;;6.60;83.70;;;5.88;67.26;93015.13;5067606;28;20200;-82
2021/01/29 09:56:17;;;;;;;8.35;5.63;;;6.60;83.50;;;5.87;67.37;93013.50;5037731;28;20622;-82
2021/01/29 09:59:14;;;;;;;9.18;5.60;;;6.60;83.50;;;5.83;67.46;92998.53;5053554;28;20287;-81
2021/01/29 10:01:47;;;;;;;6.55;5.75;;;6.60;83.50;;;5.86;67.65;92990.28;5037063;28;20265;-81
2021/01/29 10:05:09;;;;;;;7.72;6.07;;;6.60;83.60;;;5.82;67.50;92979.50;5037334;28;20188;-82
2021/01/29 10:07:42;;;;;;;6.82;5.40;;;6.60;83.70;;;5.84;67.91;92987.13;5054196;28;20646;-80
2021/01/29 10:10:23;;;;;;;6.10;5.25;;;6.60;83.80;;;5.92;67.56;92985.06;5025994;28;20223;-81
2021/01/29 10:13:02;;;;;;;6.47;5.57;;;6.60;83.90;;;5.91;67.94;92972.25;5053420;28;20547;-81
2021/01/29 10:15:35;;;;;;;5.47;4.97;;;6.60;84.00;;;6.05;67.75;92973.78;5053121;28;20681;-81
2021/01/29 10:18:13;;;;;;;6.20;5.38;;;6.70;84.20;;;6.08;67.50;92970.75;5050110;28;20238;-81
2021/01/29 10:20:42;;;;;;;6.50;5.43;;;6.70;84.20;;;6.12;67.56;92965.91;5034362;28;20671;-80
2021/01/29 10:23:35;;;;;;;5.53;4.82;;;6.80;84.20;;;6.16;67.41;92961.88;5050530;28;20718;-80
2021/01/29 10:26:19;;;;;;;5.85;4.82;;;6.80;84.10;;;6.13;67.30;92957.09;5051248;28;20242;-81
2021/01/29 10:29:12;;;;;;;6.50;5.30;;;6.80;84.20;;;6.19;67.48;92951.06;5033889;28;20231;-81
2021/01/29 10:32:02;;;;;;;5.75;5.03;;;6.80;84.10;;;6.21;67.89;92943.84;5028248;28;20655;-81
2021/01/29 10:35:08;;;;;;;5.35;4.68;;;6.80;84.00;;;6.23;67.41;92948.81;5060444;28;20280;-82
2021/01/29 10:38:09;;;;;;;6.15;4.60;;;6.90;84.10;;;6.23;67.86;92941.78;5085237;28;20302;-82
2021/01/29 10:40:39;;;;;;;5.63;4.70;;;6.90;84.10;;;6.30;67.80;92935.72;5049201;28;20208;-81
2021/01/29 10:43:40;;;;;;;5.85;5.07;;;6.90;84.20;;;6.32;67.64;92937.09;5033878;28;20635;-81
2021/01/29 10:46:30;;;;;;;6.10;4.82;;;6.90;84.20;;;6.38;67.50;92932.84;5064107;28;20228;-80
2021/01/29 10:49:22;;;;;;;5.13;4.55;;;7.00;84.30;;;6.41;67.67;92938.44;5034552;28;20565;-82
2021/01/29 10:51:54;;;;;;;4.45;4.00;;;7.00;84.30;;;6.47;67.64;92934.19;5050252;28;20199;-82
2021/01/29 10:54:23;;;;;;;4.93;4.00;;;7.10;84.50;;;6.54;67.59;92937.53;5067992;28;20257;-82
2021/01/29 10:57:01;;;;;;;4.90;4.07;;;7.10;84.60;;;6.61;67.63;92934.84;5050900;28;20305;-82
2021/01/29 10:59:57;;;;;;;4.45;3.90;;;7.10;84.60;;;6.70;67.96;92930.94;5067205;28;20200;-81
2021/01/29 11:02:38;;;;;;;4.38;3.63;;;7.20;84.80;;;6.81;67.93;92926.81;5051930;28;20192;-82
2021/01/29 11:05:09;;;;;;;4.43;3.40;;;7.20;85.00;;;6.94;68.18;92925.06;5034698;28;20216;-81
2021/01/29 11:07:43;;;;;;;4.03;3.38;;;7.30;85.20;;;7.01;67.94;92921.38;5035475;28;20200;-81
2021/01/29 11:10:32;;;;;;;3.20;2.90;;;7.40;85.20;;;7.10;67.90;92924.47;5053285;28;20230;-82
2021/01/29 11:13:10;;;;;;;2.70;2.47;;;7.50;85.20;;;7.19;67.72;92928.38;5053223;28;20246;-82
2021/01/29 11:15:54;;;;;;;3.72;3.05;;;7.60;85.20;;;7.29;67.85;92920.03;5068104;28;20228;-82
2021/01/29 11:18:37;;;;;;;3.45;2.58;;;7.70;85.20;;;7.34;67.75;92920.16;5052518;28;20199;-81
2021/01/29 11:22:00;;;;;;;7.43;2.67;;;7.80;85.10;;;7.37;67.66;92916.31;5036150;28;20224;-82
2021/01/29 11:24:41;;;;;;;3.70;2.45;;;7.80;85.00;;;7.44;67.48;92918.84;5049367;28;20199;-81
2021/01/29 11:27:32;;;;;;;3.38;2.72;;;7.90;85.00;;;7.52;67.86;92913.31;5051865;28;20208;-83
2021/01/29 11:30:27;;;;;;;3.85;3.00;;;7.90;84.90;;;7.61;68.05;92908.56;5036015;28;20238;-82
2021/01/29 11:33:05;;;;;;;5.88;3.05;;;8.00;85.20;;;7.71;67.70;92910.63;5051459;28;20200;-82
2021/01/29 11:35:37;;;;;;;10.15;3.30;;;8.10;85.30;;;7.78;67.86;92900.91;5035343;28;20227;-81
2021/01/29 11:38:34;;;;;;;3.17;2.88;;;8.20;85.30;;;7.82;67.55;92899.41;5063769;28;20208;-81
2021/01/29 11:41:30;;;;;;;5.20;3.80;;;8.30;84.90;;;7.83;67.64;92898.41;5082687;28;20282;-82
2021/01/29 11:44:36;;;;;;;100.57;37.05;;;8.30;84.80;;;7.87;67.75;92896.94;5068703;28;20657;-81
2021/01/29 11:47:29;;;;;;;48.22;22.13;;;8.40;84.90;;;7.93;67.87;92890.03;5051273;28;20200;-81
2021/01/29 11:50:28;;;;;;;20.00;10.40;;;8.40;85.30;;;8.01;68.11;92881.88;5034837;28;20219;-82
2021/01/29 11:53:10;;;;;;;12.57;6.88;;;8.50;85.30;;;8.14;68.27;92870.38;5066429;28;20219;-82
2021/01/29 11:55:48;;;;;;;5.45;3.53;;;8.60;85.50;;;8.28;68.34;92860.53;5065742;28;20772;-82
2021/01/29 11:58:30;;;;;;;2.40;2.20;;;8.60;85.80;;;8.43;68.73;92853.00;5033872;28;20215;-82
2021/01/29 12:01:10;;;;;;;2.22;1.95;;;8.70;86.30;;;8.68;69.23;92859.81;5033706;28;20227;-82
2021/01/29 12:03:58;;;;;;;3.05;1.80;;;8.90;86.90;;;8.88;68.96;92851.56;5066750;28;20192;-82
2021/01/29 12:06:46;;;;;;;1.73;1.30;;;9.00;86.90;;;9.05;68.96;92845.63;5033883;28;20662;-81
2021/01/29 12:09:44;;;;;;;1.30;1.25;;;9.20;86.80;;;9.18;68.93;92836.69;5051006;28;20195;-82
2021/01/29 12:12:37;;;;;;;1.63;1.45;;;9.40;86.90;;;9.35;69.47;92836.72;5051397;28;20195;-82
2021/01/29 12:15:16;;;;;;;1.80;1.50;;;9.50;87.30;;;9.48;69.15;92825.94;5034626;28;20224;-82